sensor_id;sensor_type;location;lat;lon;timestamp;pressure;altitude;pressure_sealevel;temperature;humidity
37694;BME280;23531;50.122;8.644;2022-10-16T02:01:42;100270.81;;;16.42;nan
37694;BME280;23531;50.122;8.644;2022-10-16T02:03:46;100275.41;;;16.41;nan
37694;BME280;23531;50.122;8.644;2022-10-16T02:05:53;100264.81;;;16.40;nan
37694;BME280;23531;50.122;8.644;2022-10-16T02:07:55;100263.59;;;16.30;nan
37694;BME280;23531;50.122;8.644;2022-10-16T02:09:56;100263.84;;;16.29;nan
37694;BME280;23531;50.122;8.644;2022-10-16T02:12:01;100275.19;;;16.26;nan
37694;BME280;23531;50.122;8.644;2022-10-16T02:14:06;100278.25;;;16.29;nan
37694;BME280;23531;50.122;8.644;2022-10-16T02:16:09;100271.00;;;16.35;nan
37694;BME280;23531;50.122;8.644;2022-10-16T02:18:13;100275.09;;;16.38;nan
37694;BME280;23531;50.122;8.644;2022-10-16T02:20:15;100291.88;;;16.34;nan
37694;BME280;23531;50.122;8.644;2022-10-16T02:22:22;100291.56;;;16.31;nan
37694;BME280;23531;50.122;8.644;2022-10-16T02:24:26;100293.22;;;16.32;nan
37694;BME280;23531;50.122;8.644;2022-10-16T02:26:37;100285.81;;;16.27;nan
37694;BME280;23531;50.122;8.644;2022-10-16T02:28:45;100293.69;;;16.29;nan
37694;BME280;23531;50.122;8.644;2022-10-16T02:30:50;100291.75;;;16.24;nan
37694;BME280;23531;50.122;8.644;2022-10-16T02:32:55;100288.47;;;16.22;nan
37694;BME280;23531;50.122;8.644;2022-10-16T02:35:01;100291.44;;;16.21;nan
37694;BME280;23531;50.122;8.644;2022-10-16T02:37:04;100291.75;;;16.24;nan
37694;BME280;23531;50.122;8.644;2022-10-16T02:39:07;100291.22;;;16.27;nan
37694;BME280;23531;50.122;8.644;2022-10-16T02:41:09;100287.28;;;16.35;nan
37694;BME280;23531;50.122;8.644;2022-10-16T02:43:11;100282.34;;;16.32;nan
37694;BME280;23531;50.122;8.644;2022-10-16T02:45:12;100281.03;;;16.34;nan
37694;BME280;23531;50.122;8.644;2022-10-16T02:47:14;100294.09;;;16.38;nan
37694;BME280;23531;50.122;8.644;2022-10-16T02:49:15;100282.41;;;16.37;nan
37694;BME280;23531;50.122;8.644;2022-10-16T02:51:19;100296.75;;;16.32;nan
37694;BME280;23531;50.122;8.644;2022-10-16T02:53:20;100293.88;;;16.22;nan
37694;BME280;23531;50.122;8.644;2022-10-16T02:55:22;100302.03;;;16.22;nan
37694;BME280;23531;50.122;8.644;2022-10-16T02:57:23;100296.66;;;16.27;nan
37694;BME280;23531;50.122;8.644;2022-10-16T02:59:25;100300.13;;;16.23;nan
37694;BME280;23531;50.122;8.644;2022-10-16T03:01:26;100297.72;;;16.26;nan
37694;BME280;23531;50.122;8.644;2022-10-16T03:03:28;100300.63;;;16.20;nan
37694;BME280;23531;50.122;8.644;2022-10-16T03:05:29;100301.69;;;16.19;nan
37694;BME280;23531;50.122;8.644;2022-10-16T03:07:32;100316.56;;;16.16;nan
37694;BME280;23531;50.122;8.644;2022-10-16T03:09:33;100315.50;;;16.17;nan
37694;BME280;23531;50.122;8.644;2022-10-16T03:11:35;100315.50;;;16.17;nan
37694;BME280;23531;50.122;8.644;2022-10-16T03:13:36;100307.38;;;16.17;nan
37694;BME280;23531;50.122;8.644;2022-10-16T03:15:38;100306.72;;;16.10;nan
37694;BME280;23531;50.122;8.644;2022-10-16T03:17:39;100308.88;;;16.08;nan
37694;BME280;23531;50.122;8.644;2022-10-16T03:19:40;100300.97;;;16.07;nan
37694;BME280;23531;50.122;8.644;2022-10-16T03:21:42;100314.22;;;16.03;nan
37694;BME280;23531;50.122;8.644;2022-10-16T03:23:45;100311.00;;;16.06;nan
37694;BME280;23531;50.122;8.644;2022-10-16T03:25:46;100312.41;;;16.09;nan
37694;BME280;23531;50.122;8.644;2022-10-16T03:27:48;100316.53;;;16.11;nan
37694;BME280;23531;50.122;8.644;2022-10-16T03:29:49;100315.22;;;16.14;nan
37694;BME280;23531;50.122;8.644;2022-10-16T03:31:51;100324.81;;;16.21;nan
37694;BME280;23531;50.122;8.644;2022-10-16T03:33:52;100328.34;;;16.22;nan
37694;BME280;23531;50.122;8.644;2022-10-16T03:35:54;100326.34;;;16.17;nan
37694;BME280;23531;50.122;8.644;2022-10-16T03:37:55;100315.59;;;16.22;nan
37694;BME280;23531;50.122;8.644;2022-10-16T03:39:59;100310.66;;;16.19;nan
37694;BME280;23531;50.122;8.644;2022-10-16T03:42:00;100318.56;;;16.21;nan
37694;BME280;23531;50.122;8.644;2022-10-16T03:44:01;100323.00;;;16.10;nan
37694;BME280;23531;50.122;8.644;2022-10-16T03:46:03;100329.91;;;16.18;nan
37694;BME280;23531;50.122;8.644;2022-10-16T03:48:04;100338.84;;;16.18;nan
37694;BME280;23531;50.122;8.644;2022-10-16T03:50:07;100334.25;;;16.19;nan
37694;BME280;23531;50.122;8.644;2022-10-16T03:52:08;100326.94;;;16.19;nan
37694;BME280;23531;50.122;8.644;2022-10-16T03:54:10;100318.72;;;16.14;nan
37694;BME280;23531;50.122;8.644;2022-10-16T03:56:13;100317.44;;;16.00;nan
37694;BME280;23531;50.122;8.644;2022-10-16T03:58:14;100321.56;;;16.03;nan
37694;BME280;23531;50.122;8.644;2022-10-16T04:00:16;100320.22;;;16.05;nan
37694;BME280;23531;50.122;8.644;2022-10-16T04:02:18;100323.59;;;16.12;nan
37694;BME280;23531;50.122;8.644;2022-10-16T04:04:19;100330.13;;;16.16;nan
37694;BME280;23531;50.122;8.644;2022-10-16T04:06:21;100329.06;;;16.17;nan
37694;BME280;23531;50.122;8.644;2022-10-16T04:08:22;100331.78;;;16.17;nan
37694;BME280;23531;50.122;8.644;2022-10-16T04:10:24;100321.03;;;16.22;nan
37694;BME280;23531;50.122;8.644;2022-10-16T04:12:27;100314.53;;;16.23;nan
37694;BME280;23531;50.122;8.644;2022-10-16T04:14:30;100326.50;;;16.27;nan
37694;BME280;23531;50.122;8.644;2022-10-16T04:16:31;100331.06;;;16.22;nan
37694;BME280;23531;50.122;8.644;2022-10-16T04:18:33;100335.31;;;16.18;nan
37694;BME280;23531;50.122;8.644;2022-10-16T04:20:35;100347.47;;;16.15;nan
37694;BME280;23531;50.122;8.644;2022-10-16T04:22:36;100342.63;;;16.17;nan
37694;BME280;23531;50.122;8.644;2022-10-16T04:24:38;100345.94;;;16.19;nan
37694;BME280;23531;50.122;8.644;2022-10-16T04:26:39;100342.06;;;16.15;nan
37694;BME280;23531;50.122;8.644;2022-10-16T04:28:43;100338.38;;;16.05;nan
37694;BME280;23531;50.122;8.644;2022-10-16T04:30:44;100335.50;;;15.94;nan
37694;BME280;23531;50.122;8.644;2022-10-16T04:32:47;100343.16;;;15.97;nan
37694;BME280;23531;50.122;8.644;2022-10-16T04:34:49;100346.84;;;16.08;nan
37694;BME280;23531;50.122;8.644;2022-10-16T04:36:50;100346.41;;;16.16;nan
37694;BME280;23531;50.122;8.644;2022-10-16T04:38:52;100347.56;;;16.20;nan
37694;BME280;23531;50.122;8.644;2022-10-16T04:40:53;100354.69;;;16.26;nan
37694;BME280;23531;50.122;8.644;2022-10-16T04:42:55;100345.00;;;16.30;nan
37694;BME280;23531;50.122;8.644;2022-10-16T04:44:57;100348.78;;;16.29;nan
37694;BME280;23531;50.122;8.644;2022-10-16T04:46:59;100348.28;;;16.32;nan
37694;BME280;23531;50.122;8.644;2022-10-16T04:49:00;100352.91;;;16.32;nan
37694;BME280;23531;50.122;8.644;2022-10-16T04:51:02;100360.72;;;16.28;nan
37694;BME280;23531;50.122;8.644;2022-10-16T04:53:03;100347.31;;;16.22;nan
37694;BME280;23531;50.122;8.644;2022-10-16T04:55:05;100345.94;;;16.19;nan
37694;BME280;23531;50.122;8.644;2022-10-16T04:57:07;100344.53;;;16.17;nan
37694;BME280;23531;50.122;8.644;2022-10-16T04:59:09;100341.56;;;16.18;nan
37694;BME280;23531;50.122;8.644;2022-10-16T05:01:11;100347.56;;;16.20;nan
37694;BME280;23531;50.122;8.644;2022-10-16T05:03:13;100350.34;;;16.25;nan
37694;BME280;23531;50.122;8.644;2022-10-16T05:05:16;100358.56;;;16.30;nan
37694;BME280;23531;50.122;8.644;2022-10-16T05:07:19;100357.41;;;16.26;nan
37694;BME280;23531;50.122;8.644;2022-10-16T05:09:20;100349.84;;;16.28;nan
37694;BME280;23531;50.122;8.644;2022-10-16T05:11:22;100347.97;;;16.29;nan
37694;BME280;23531;50.122;8.644;2022-10-16T05:13:23;100355.03;;;16.30;nan
37694;BME280;23531;50.122;8.644;2022-10-16T05:15:25;100357.50;;;16.31;nan
37694;BME280;23531;50.122;8.644;2022-10-16T05:17:28;100358.56;;;16.30;nan
37694;BME280;23531;50.122;8.644;2022-10-16T05:19:29;100368.84;;;16.28;nan
37694;BME280;23531;50.122;8.644;2022-10-16T05:21:30;100369.34;;;16.25;nan
37694;BME280;23531;50.122;8.644;2022-10-16T05:23:32;100366.97;;;16.29;nan
37694;BME280;23531;50.122;8.644;2022-10-16T05:25:34;100362.94;;;16.31;nan
37694;BME280;23531;50.122;8.644;2022-10-16T05:27:35;100365.56;;;16.26;nan
37694;BME280;23531;50.122;8.644;2022-10-16T05:29:36;100357.34;;;16.21;nan
37694;BME280;23531;50.122;8.644;2022-10-16T05:31:38;100349.47;;;16.03;nan
37694;BME280;23531;50.122;8.644;2022-10-16T05:33:41;100352.59;;;15.95;nan
37694;BME280;23531;50.122;8.644;2022-10-16T05:35:44;100353.09;;;15.92;nan
37694;BME280;23531;50.122;8.644;2022-10-16T05:37:46;100349.41;;;15.98;nan
37694;BME280;23531;50.122;8.644;2022-10-16T05:39:47;100343.66;;;16.11;nan
37694;BME280;23531;50.122;8.644;2022-10-16T05:41:49;100343.22;;;16.19;nan
37694;BME280;23531;50.122;8.644;2022-10-16T05:43:52;100351.44;;;16.24;nan
37694;BME280;23531;50.122;8.644;2022-10-16T05:45:55;100348.22;;;16.27;nan
37694;BME280;23531;50.122;8.644;2022-10-16T05:47:56;100360.78;;;16.33;nan
37694;BME280;23531;50.122;8.644;2022-10-16T05:49:59;100359.97;;;16.33;nan
37694;BME280;23531;50.122;8.644;2022-10-16T05:52:00;100367.03;;;16.34;nan
37694;BME280;23531;50.122;8.644;2022-10-16T05:54:03;100367.88;;;16.34;nan
37694;BME280;23531;50.122;8.644;2022-10-16T05:56:06;100368.13;;;16.33;nan
37694;BME280;23531;50.122;8.644;2022-10-16T05:58:07;100382.25;;;16.35;nan
37694;BME280;23531;50.122;8.644;2022-10-16T06:00:10;100382.50;;;16.33;nan
37694;BME280;23531;50.122;8.644;2022-10-16T06:02:12;100398.78;;;16.33;nan
37694;BME280;23531;50.122;8.644;2022-10-16T06:04:14;100397.72;;;16.34;nan
37694;BME280;23531;50.122;8.644;2022-10-16T06:06:18;100402.56;;;16.32;nan
37694;BME280;23531;50.122;8.644;2022-10-16T06:08:21;100400.91;;;16.31;nan
37694;BME280;23531;50.122;8.644;2022-10-16T06:10:23;100397.88;;;16.28;nan
37694;BME280;23531;50.122;8.644;2022-10-16T06:12:24;100399.59;;;16.17;nan
37694;BME280;23531;50.122;8.644;2022-10-16T06:14:26;100398.19;;;16.15;nan
37694;BME280;23531;50.122;8.644;2022-10-16T06:16:28;100396.41;;;16.20;nan
37694;BME280;23531;50.122;8.644;2022-10-16T06:18:30;100404.38;;;16.27;nan
37694;BME280;23531;50.122;8.644;2022-10-16T06:20:31;100404.94;;;16.29;nan
37694;BME280;23531;50.122;8.644;2022-10-16T06:22:34;100407.84;;;16.22;nan
37694;BME280;23531;50.122;8.644;2022-10-16T06:24:36;100401.84;;;16.20;nan
37694;BME280;23531;50.122;8.644;2022-10-16T06:26:38;100407.31;;;16.25;nan
37694;BME280;23531;50.122;8.644;2022-10-16T06:28:39;100414.50;;;16.31;nan
37694;BME280;23531;50.122;8.644;2022-10-16T06:30:41;100414.00;;;16.34;nan
37694;BME280;23531;50.122;8.644;2022-10-16T06:32:43;100417.84;;;16.39;nan
37694;BME280;23531;50.122;8.644;2022-10-16T06:34:45;100421.38;;;16.39;nan
37694;BME280;23531;50.122;8.644;2022-10-16T06:36:46;100445.56;;;16.41;nan
37694;BME280;23531;50.122;8.644;2022-10-16T06:38:49;100425.50;;;16.42;nan
37694;BME280;23531;50.122;8.644;2022-10-16T06:40:53;100415.47;;;16.42;nan
37694;BME280;23531;50.122;8.644;2022-10-16T06:42:54;100408.38;;;16.41;nan
37694;BME280;23531;50.122;8.644;2022-10-16T06:44:56;100410.84;;;16.43;nan
37694;BME280;23531;50.122;8.644;2022-10-16T06:46:57;100417.94;;;16.44;nan
37694;BME280;23531;50.122;8.644;2022-10-16T06:48:59;100410.84;;;16.43;nan
37694;BME280;23531;50.122;8.644;2022-10-16T06:51:02;100421.91;;;16.36;nan
37694;BME280;23531;50.122;8.644;2022-10-16T06:53:04;100413.25;;;16.39;nan
37694;BME280;23531;50.122;8.644;2022-10-16T06:55:07;100414.06;;;16.40;nan
37694;BME280;23531;50.122;8.644;2022-10-16T06:57:09;100422.78;;;16.42;nan
37694;BME280;23531;50.122;8.644;2022-10-16T06:59:10;100432.56;;;16.43;nan
37694;BME280;23531;50.122;8.644;2022-10-16T07:01:13;100433.38;;;16.43;nan
37694;BME280;23531;50.122;8.644;2022-10-16T07:03:15;100438.56;;;16.45;nan
37694;BME280;23531;50.122;8.644;2022-10-16T07:05:16;100434.28;;;16.49;nan
37694;BME280;23531;50.122;8.644;2022-10-16T07:07:18;100434.84;;;16.51;nan
37694;BME280;23531;50.122;8.644;2022-10-16T07:09:19;100433.78;;;16.52;nan
37694;BME280;23531;50.122;8.644;2022-10-16T07:11:23;100440.84;;;16.53;nan
37694;BME280;23531;50.122;8.644;2022-10-16T07:13:25;100447.84;;;16.49;nan
37694;BME280;23531;50.122;8.644;2022-10-16T07:15:26;100451.72;;;16.53;nan
37694;BME280;23531;50.122;8.644;2022-10-16T07:17:28;100451.22;;;16.56;nan
37694;BME280;23531;50.122;8.644;2022-10-16T07:19:29;100454.78;;;16.56;nan
37694;BME280;23531;50.122;8.644;2022-10-16T07:21:32;100461.50;;;16.54;nan
37694;BME280;23531;50.122;8.644;2022-10-16T07:23:35;100460.94;;;16.52;nan
37694;BME280;23531;50.122;8.644;2022-10-16T07:25:37;100461.25;;;16.55;nan
37694;BME280;23531;50.122;8.644;2022-10-16T07:27:40;100463.06;;;16.50;nan
37694;BME280;23531;50.122;8.644;2022-10-16T07:29:41;100467.19;;;16.52;nan
37694;BME280;23531;50.122;8.644;2022-10-16T07:31:43;100477.22;;;16.52;nan
37694;BME280;23531;50.122;8.644;2022-10-16T07:33:46;100477.97;;;16.47;nan
37694;BME280;23531;50.122;8.644;2022-10-16T07:35:49;100486.44;;;16.51;nan
37694;BME280;23531;50.122;8.644;2022-10-16T07:37:51;100492.09;;;16.49;nan
37694;BME280;23531;50.122;8.644;2022-10-16T07:39:52;100498.44;;;16.55;nan
37694;BME280;23531;50.122;8.644;2022-10-16T07:41:54;100485.94;;;16.54;nan
37694;BME280;23531;50.122;8.644;2022-10-16T07:43:56;100494.66;;;16.56;nan
37694;BME280;23531;50.122;8.644;2022-10-16T07:46:00;100508.22;;;16.56;nan
37694;BME280;23531;50.122;8.644;2022-10-16T07:48:02;100515.31;;;16.57;nan
37694;BME280;23531;50.122;8.644;2022-10-16T07:50:05;100518.03;;;16.57;nan
37694;BME280;23531;50.122;8.644;2022-10-16T07:52:06;100523.75;;;16.60;nan
37694;BME280;23531;50.122;8.644;2022-10-16T07:54:08;100517.06;;;16.63;nan
37694;BME280;23531;50.122;8.644;2022-10-16T07:56:10;100511.97;;;16.66;nan
37694;BME280;23531;50.122;8.644;2022-10-16T07:58:11;100510.81;;;16.62;nan
37694;BME280;23531;50.122;8.644;2022-10-16T08:00:14;100517.16;;;16.68;nan
37694;BME280;23531;50.122;8.644;2022-10-16T08:02:16;100524.78;;;16.71;nan
37694;BME280;23531;50.122;8.644;2022-10-16T08:04:17;100526.94;;;16.69;nan
37694;BME280;23531;50.122;8.644;2022-10-16T08:06:20;100533.50;;;16.73;nan
37694;BME280;23531;50.122;8.644;2022-10-16T08:08:23;100542.47;;;16.74;nan
37694;BME280;23531;50.122;8.644;2022-10-16T08:10:26;100548.47;;;16.76;nan
37694;BME280;23531;50.122;8.644;2022-10-16T08:12:27;100556.88;;;16.74;nan
37694;BME280;23531;50.122;8.644;2022-10-16T08:14:29;100555.22;;;16.73;nan
37694;BME280;23531;50.122;8.644;2022-10-16T08:16:31;100548.97;;;16.73;nan
37694;BME280;23531;50.122;8.644;2022-10-16T08:18:34;100546.84;;;16.75;nan
37694;BME280;23531;50.122;8.644;2022-10-16T08:20:36;100549.78;;;16.73;nan
37694;BME280;23531;50.122;8.644;2022-10-16T08:22:37;100546.25;;;16.73;nan
37694;BME280;23531;50.122;8.644;2022-10-16T08:24:39;100546.84;;;16.75;nan
37694;BME280;23531;50.122;8.644;2022-10-16T08:26:41;100559.34;;;16.76;nan
37694;BME280;23531;50.122;8.644;2022-10-16T08:28:42;100562.88;;;16.76;nan
37694;BME280;23531;50.122;8.644;2022-10-16T08:30:43;100567.25;;;16.77;nan
37694;BME280;23531;50.122;8.644;2022-10-16T08:32:46;100574.47;;;16.72;nan
37694;BME280;23531;50.122;8.644;2022-10-16T08:34:48;100569.56;;;16.68;nan
37694;BME280;23531;50.122;8.644;2022-10-16T08:36:49;100573.59;;;16.66;nan
37694;BME280;23531;50.122;8.644;2022-10-16T08:38:51;100578.78;;;16.67;nan
37694;BME280;23531;50.122;8.644;2022-10-16T08:40:59;100579.59;;;16.68;nan
37694;BME280;23531;50.122;8.644;2022-10-16T08:43:21;100582.56;;;16.66;nan
37694;BME280;23531;50.122;8.644;2022-10-16T08:45:34;100587.97;;;16.66;nan
37694;BME280;23531;50.122;8.644;2022-10-16T08:47:48;100590.47;;;16.68;nan
37694;BME280;23531;50.122;8.644;2022-10-16T08:49:56;100590.75;;;16.72;nan
37694;BME280;23531;50.122;8.644;2022-10-16T08:51:58;100600.81;;;16.71;nan
37694;BME280;23531;50.122;8.644;2022-10-16T08:54:03;100603.03;;;16.74;nan
37694;BME280;23531;50.122;8.644;2022-10-16T08:56:06;100599.84;;;16.77;nan
37694;BME280;23531;50.122;8.644;2022-10-16T08:58:12;100607.63;;;16.74;nan
37694;BME280;23531;50.122;8.644;2022-10-16T09:00:15;100610.03;;;16.70;nan
37694;BME280;23531;50.122;8.644;2022-10-16T09:02:24;100620.56;;;16.66;nan
37694;BME280;23531;50.122;8.644;2022-10-16T09:04:55;100600.78;;;16.54;nan
37694;BME280;23531;50.122;8.644;2022-10-16T09:07:02;100603.38;;;16.49;nan
37694;BME280;23531;50.122;8.644;2022-10-16T09:09:17;100612.59;;;16.48;nan
37694;BME280;23531;50.122;8.644;2022-10-16T09:11:33;100611.28;;;16.51;nan
37694;BME280;23531;50.122;8.644;2022-10-16T09:13:43;100617.22;;;16.48;nan
37694;BME280;23531;50.122;8.644;2022-10-16T09:15:53;100616.41;;;16.47;nan
37694;BME280;23531;50.122;8.644;2022-10-16T09:18:01;100621.19;;;16.57;nan
37694;BME280;23531;50.122;8.644;2022-10-16T09:20:16;100628.47;;;16.68;nan
37694;BME280;23531;50.122;8.644;2022-10-16T09:22:21;100631.25;;;16.73;nan
37694;BME280;23531;50.122;8.644;2022-10-16T09:24:25;100631.25;;;16.73;nan
37694;BME280;23531;50.122;8.644;2022-10-16T09:26:27;100642.63;;;16.70;nan
37694;BME280;23531;50.122;8.644;2022-10-16T09:28:28;100651.31;;;16.72;nan
37694;BME280;23531;50.122;8.644;2022-10-16T09:30:30;100655.09;;;16.71;nan
37694;BME280;23531;50.122;8.644;2022-10-16T09:32:32;100663.84;;;16.73;nan
37694;BME280;23531;50.122;8.644;2022-10-16T09:34:36;100655.63;;;16.68;nan
37694;BME280;23531;50.122;8.644;2022-10-16T09:36:42;100652.66;;;16.69;nan
37694;BME280;23531;50.122;8.644;2022-10-16T09:38:45;100657.28;;;16.69;nan
37694;BME280;23531;50.122;8.644;2022-10-16T09:40:47;100666.06;;;16.76;nan
37694;BME280;23531;50.122;8.644;2022-10-16T09:42:49;100662.78;;;16.74;nan
37694;BME280;23531;50.122;8.644;2022-10-16T09:44:51;100664.19;;;16.77;nan
37694;BME280;23531;50.122;8.644;2022-10-16T09:47:01;100671.50;;;16.76;nan
37694;BME280;23531;50.122;8.644;2022-10-16T09:49:05;100674.13;;;16.71;nan
37694;BME280;23531;50.122;8.644;2022-10-16T09:51:23;100666.47;;;16.68;nan
37694;BME280;23531;50.122;8.644;2022-10-16T09:53:38;100664.34;;;16.70;nan
37694;BME280;23531;50.122;8.644;2022-10-16T09:55:50;100657.28;;;16.69;nan
37694;BME280;23531;50.122;8.644;2022-10-16T09:57:52;100675.38;;;16.80;nan
37694;BME280;23531;50.122;8.644;2022-10-16T09:59:55;100674.88;;;16.83;nan
37694;BME280;23531;50.122;8.644;2022-10-16T10:02:01;100678.41;;;16.84;nan
37694;BME280;23531;50.122;8.644;2022-10-16T10:04:04;100680.88;;;16.85;nan
37694;BME280;23531;50.122;8.644;2022-10-16T10:06:16;100682.53;;;16.86;nan
37694;BME280;23531;50.122;8.644;2022-10-16T10:08:18;100678.75;;;16.87;nan
37694;BME280;23531;50.122;8.644;2022-10-16T10:10:23;100679.81;;;16.86;nan
37694;BME280;23531;50.122;8.644;2022-10-16T10:12:27;100674.50;;;16.91;nan
37694;BME280;23531;50.122;8.644;2022-10-16T10:14:31;100671.53;;;16.93;nan
37694;BME280;23531;50.122;8.644;2022-10-16T10:16:36;100670.78;;;16.97;nan
37694;BME280;23531;50.122;8.644;2022-10-16T10:18:37;100683.63;;;17.02;nan
37694;BME280;23531;50.122;8.644;2022-10-16T10:20:39;100679.19;;;17.13;nan
37694;BME280;23531;50.122;8.644;2022-10-16T10:24:44;100675.47;;;17.19;nan
37694;BME280;23531;50.122;8.644;2022-10-16T10:26:56;100671.28;;;17.28;nan
37694;BME280;23531;50.122;8.644;2022-10-16T10:29:06;100673.84;;;17.34;nan
37694;BME280;23531;50.122;8.644;2022-10-16T10:31:17;100675.25;;;17.37;nan
37694;BME280;23531;50.122;8.644;2022-10-16T10:33:28;100671.47;;;17.38;nan
37694;BME280;23531;50.122;8.644;2022-10-16T10:35:39;100671.47;;;17.38;nan
37694;BME280;23531;50.122;8.644;2022-10-16T10:37:57;100677.19;;;17.41;nan
37694;BME280;23531;50.122;8.644;2022-10-16T10:40:08;100667.16;;;17.42;nan
37694;BME280;23531;50.122;8.644;2022-10-16T10:42:19;100665.00;;;17.44;nan
37694;BME280;23531;50.122;8.644;2022-10-16T10:46:34;100670.59;;;17.54;nan
37694;BME280;23531;50.122;8.644;2022-10-16T10:48:53;100667.97;;;17.59;nan
37694;BME280;23531;50.122;8.644;2022-10-16T10:50:58;100665.78;;;17.61;nan
37694;BME280;23531;50.122;8.644;2022-10-16T10:53:06;100671.59;;;17.65;nan
37694;BME280;23531;50.122;8.644;2022-10-16T10:55:18;100672.41;;;17.65;nan
37694;BME280;23531;50.122;8.644;2022-10-16T10:57:29;100676.09;;;17.76;nan
37694;BME280;23531;50.122;8.644;2022-10-16T10:59:54;100668.91;;;17.87;nan
37694;BME280;23531;50.122;8.644;2022-10-16T11:02:00;100664.59;;;17.91;nan
37694;BME280;23531;50.122;8.644;2022-10-16T11:04:24;100667.91;;;17.93;nan
37694;BME280;23531;50.122;8.644;2022-10-16T11:06:31;100672.78;;;17.91;nan
37694;BME280;23531;50.122;8.644;2022-10-16T11:08:36;100670.63;;;17.93;nan
37694;BME280;23531;50.122;8.644;2022-10-16T11:10:45;100665.72;;;17.95;nan
37694;BME280;23531;50.122;8.644;2022-10-16T11:12:52;100666.00;;;17.93;nan
37694;BME280;23531;50.122;8.644;2022-10-16T11:15:00;100667.38;;;17.96;nan
37694;BME280;23531;50.122;8.644;2022-10-16T11:17:06;100665.81;;;18.00;nan
37694;BME280;23531;50.122;8.644;2022-10-16T11:19:12;100668.19;;;17.96;nan
37694;BME280;23531;50.122;8.644;2022-10-16T11:21:18;100667.38;;;17.96;nan
37694;BME280;23531;50.122;8.644;2022-10-16T11:23:24;100669.84;;;17.97;nan
37694;BME280;23531;50.122;8.644;2022-10-16T11:25:28;100660.38;;;18.00;nan
37694;BME280;23531;50.122;8.644;2022-10-16T11:27:37;100670.50;;;18.04;nan
37694;BME280;23531;50.122;8.644;2022-10-16T11:29:45;100664.53;;;18.07;nan
37694;BME280;23531;50.122;8.644;2022-10-16T11:31:50;100664.25;;;18.04;nan
37694;BME280;23531;50.122;8.644;2022-10-16T11:33:59;100661.50;;;18.04;nan
37694;BME280;23531;50.122;8.644;2022-10-16T11:36:10;100661.56;;;18.09;nan
37694;BME280;23531;50.122;8.644;2022-10-16T11:38:19;100660.50;;;18.10;nan
37694;BME280;23531;50.122;8.644;2022-10-16T11:40:28;100665.09;;;18.09;nan
37694;BME280;23531;50.122;8.644;2022-10-16T11:42:37;100663.47;;;18.08;nan
37694;BME280;23531;50.122;8.644;2022-10-16T11:44:51;100668.41;;;18.11;nan
37694;BME280;23531;50.122;8.644;2022-10-16T11:46:58;100667.00;;;18.09;nan
37694;BME280;23531;50.122;8.644;2022-10-16T11:49:08;100665.34;;;18.08;nan
37694;BME280;23531;50.122;8.644;2022-10-16T11:51:16;100666.19;;;18.08;nan
37694;BME280;23531;50.122;8.644;2022-10-16T11:53:29;100666.44;;;18.07;nan
37694;BME280;23531;50.122;8.644;2022-10-16T11:55:36;100662.34;;;18.04;nan
37694;BME280;23531;50.122;8.644;2022-10-16T11:57:40;100662.06;;;18.06;nan
37694;BME280;23531;50.122;8.644;2022-10-16T11:59:48;100659.75;;;18.14;nan
37694;BME280;23531;50.122;8.644;2022-10-16T12:01:54;100650.78;;;18.19;nan
37694;BME280;23531;50.122;8.644;2022-10-16T12:04:11;100644.84;;;18.22;nan
37694;BME280;23531;50.122;8.644;2022-10-16T12:06:24;100642.94;;;18.23;nan
37694;BME280;23531;50.122;8.644;2022-10-16T12:08:29;100663.41;;;18.25;nan
37694;BME280;23531;50.122;8.644;2022-10-16T12:10:31;100659.59;;;18.26;nan
37694;BME280;23531;50.122;8.644;2022-10-16T12:12:39;100662.91;;;18.28;nan
37694;BME280;23531;50.122;8.644;2022-10-16T12:14:41;100665.88;;;18.27;nan
37694;BME280;23531;50.122;8.644;2022-10-16T12:16:53;100663.41;;;18.25;nan
37694;BME280;23531;50.122;8.644;2022-10-16T12:19:11;100653.13;;;18.32;nan
37694;BME280;23531;50.122;8.644;2022-10-16T12:21:14;100651.84;;;18.40;nan
37694;BME280;23531;50.122;8.644;2022-10-16T12:23:20;100650.00;;;18.45;nan
37694;BME280;23531;50.122;8.644;2022-10-16T12:25:25;100656.06;;;18.52;nan
37694;BME280;23531;50.122;8.644;2022-10-16T12:27:30;100657.44;;;18.55;nan
37694;BME280;23531;50.122;8.644;2022-10-16T12:29:35;100661.00;;;18.56;nan
37694;BME280;23531;50.122;8.644;2022-10-16T12:31:42;100658.88;;;18.58;nan
37694;BME280;23531;50.122;8.644;2022-10-16T12:33:57;100665.97;;;18.59;nan
37694;BME280;23531;50.122;8.644;2022-10-16T12:36:00;100668.59;;;18.54;nan
37694;BME280;23531;50.122;8.644;2022-10-16T12:38:12;100665.00;;;18.48;nan
37694;BME280;23531;50.122;8.644;2022-10-16T12:40:24;100672.63;;;18.46;nan
37694;BME280;23531;50.122;8.644;2022-10-16T12:42:33;100678.63;;;18.48;nan
37694;BME280;23531;50.122;8.644;2022-10-16T12:44:35;100673.75;;;18.50;nan
37694;BME280;23531;50.122;8.644;2022-10-16T12:46:38;100674.88;;;18.54;nan
37694;BME280;23531;50.122;8.644;2022-10-16T12:48:42;100672.25;;;18.59;nan
37694;BME280;23531;50.122;8.644;2022-10-16T12:50:46;100683.44;;;18.63;nan
37694;BME280;23531;50.122;8.644;2022-10-16T12:52:48;100682.91;;;18.66;nan
37694;BME280;23531;50.122;8.644;2022-10-16T12:54:50;100691.66;;;18.68;nan
37694;BME280;23531;50.122;8.644;2022-10-16T12:57:03;100680.25;;;18.71;nan
37694;BME280;23531;50.122;8.644;2022-10-16T12:59:15;100684.63;;;18.72;nan
37694;BME280;23531;50.122;8.644;2022-10-16T13:01:37;100676.97;;;18.69;nan
37694;BME280;23531;50.122;8.644;2022-10-16T13:03:57;100670.69;;;18.68;nan
37694;BME280;23531;50.122;8.644;2022-10-16T13:06:11;100672.28;;;18.64;nan
37694;BME280;23531;50.122;8.644;2022-10-16T13:08:34;100675.81;;;18.65;nan
37694;BME280;23531;50.122;8.644;2022-10-16T13:10:41;100671.19;;;18.65;nan
37694;BME280;23531;50.122;8.644;2022-10-16T13:13:06;100673.69;;;18.67;nan